sensor_id;sensor_type;location;lat;lon;timestamp;pressure;altitude;pressure_sealevel;temperature;humidity
7836;BME280;3963;42.658;23.298;2023-06-10T00:00:43;110831.34;;;-144.44;100.00
7836;BME280;3963;42.658;23.298;2023-06-10T00:03:10;110831.34;;;-144.44;100.00
7836;BME280;3963;42.658;23.298;2023-06-10T00:05:37;110831.34;;;-144.44;100.00
7836;BME280;3963;42.658;23.298;2023-06-10T00:08:05;110831.34;;;-144.44;100.00
7836;BME280;3963;42.658;23.298;2023-06-10T00:10:33;110831.34;;;-144.44;100.00
7836;BME280;3963;42.658;23.298;2023-06-10T00:13:03;110831.34;;;-144.44;100.00
7836;BME280;3963;42.658;23.298;2023-06-10T00:15:30;110831.34;;;-144.44;100.00
7836;BME280;3963;42.658;23.298;2023-06-10T00:17:57;110831.34;;;-144.44;100.00
7836;BME280;3963;42.658;23.298;2023-06-10T00:20:24;110831.34;;;-144.44;100.00
7836;BME280;3963;42.658;23.298;2023-06-10T00:22:52;110831.34;;;-144.44;100.00
7836;BME280;3963;42.658;23.298;2023-06-10T00:25:18;110831.34;;;-144.44;100.00
7836;BME280;3963;42.658;23.298;2023-06-10T00:27:46;110831.34;;;-144.44;100.00
7836;BME280;3963;42.658;23.298;2023-06-10T00:30:14;110831.34;;;-144.44;100.00
7836;BME280;3963;42.658;23.298;2023-06-10T00:32:41;110831.34;;;-144.44;100.00
7836;BME280;3963;42.658;23.298;2023-06-10T00:35:08;110831.34;;;-144.44;100.00
7836;BME280;3963;42.658;23.298;2023-06-10T00:37:34;110831.34;;;-144.44;100.00
7836;BME280;3963;42.658;23.298;2023-06-10T00:40:02;110831.34;;;-144.44;100.00
7836;BME280;3963;42.658;23.298;2023-06-10T00:42:29;110831.34;;;-144.44;100.00
7836;BME280;3963;42.658;23.298;2023-06-10T00:44:56;110831.34;;;-144.44;100.00
7836;BME280;3963;42.658;23.298;2023-06-10T00:47:25;110831.34;;;-144.44;100.00
7836;BME280;3963;42.658;23.298;2023-06-10T00:49:52;110831.34;;;-144.44;100.00
7836;BME280;3963;42.658;23.298;2023-06-10T00:52:20;110831.34;;;-144.44;100.00
7836;BME280;3963;42.658;23.298;2023-06-10T00:54:48;110831.34;;;-144.44;100.00
7836;BME280;3963;42.658;23.298;2023-06-10T00:57:15;110831.34;;;-144.44;100.00
7836;BME280;3963;42.658;23.298;2023-06-10T00:59:47;110831.34;;;-144.44;100.00
7836;BME280;3963;42.658;23.298;2023-06-10T01:02:15;110831.34;;;-144.44;100.00
7836;BME280;3963;42.658;23.298;2023-06-10T01:04:43;110831.34;;;-144.44;100.00
7836;BME280;3963;42.658;23.298;2023-06-10T01:07:23;110831.34;;;-144.44;100.00
7836;BME280;3963;42.658;23.298;2023-06-10T01:09:55;110831.34;;;-144.44;100.00
7836;BME280;3963;42.658;23.298;2023-06-10T01:12:31;110831.34;;;-144.44;100.00
7836;BME280;3963;42.658;23.298;2023-06-10T01:15:00;110831.34;;;-144.44;100.00
7836;BME280;3963;42.658;23.298;2023-06-10T01:17:29;110831.34;;;-144.44;100.00
7836;BME280;3963;42.658;23.298;2023-06-10T01:19:59;110831.34;;;-144.44;100.00
7836;BME280;3963;42.658;23.298;2023-06-10T01:22:30;110831.34;;;-144.44;100.00
7836;BME280;3963;42.658;23.298;2023-06-10T01:25:02;110831.34;;;-144.44;100.00
7836;BME280;3963;42.658;23.298;2023-06-10T01:27:31;110829.34;;;-144.44;100.00
7836;BME280;3963;42.658;23.298;2023-06-10T01:30:04;110571.50;;;-144.44;100.00
7836;BME280;3963;42.658;23.298;2023-06-10T01:32:36;110571.50;;;-144.44;100.00
7836;BME280;3963;42.658;23.298;2023-06-10T01:35:05;110313.69;;;-144.44;100.00
7836;BME280;3963;42.658;23.298;2023-06-10T01:37:37;109540.38;;;-144.44;100.00
7836;BME280;3963;42.658;23.298;2023-06-10T01:40:06;109540.38;;;-144.44;100.00
7836;BME280;3963;42.658;23.298;2023-06-10T01:42:33;109798.13;;;-144.44;100.00
7836;BME280;3963;42.658;23.298;2023-06-10T01:45:00;109282.66;;;-144.44;100.00
7836;BME280;3963;42.658;23.298;2023-06-10T01:47:27;107994.28;;;-144.44;100.00
7836;BME280;3963;42.658;23.298;2023-06-10T01:49:56;108251.91;;;-144.44;100.00
7836;BME280;3963;42.658;23.298;2023-06-10T01:52:23;108767.25;;;-144.44;100.00
7836;BME280;3963;42.658;23.298;2023-06-10T01:54:51;109798.13;;;-144.44;100.00
7836;BME280;3963;42.658;23.298;2023-06-10T01:57:18;110055.91;;;-144.44;100.00
7836;BME280;3963;42.658;23.298;2023-06-10T01:59:45;110313.69;;;-144.44;100.00
7836;BME280;3963;42.658;23.298;2023-06-10T02:02:12;110055.91;;;-144.44;100.00
7836;BME280;3963;42.658;23.298;2023-06-10T02:04:39;109282.66;;;-144.44;100.00
7836;BME280;3963;42.658;23.298;2023-06-10T02:07:06;109540.38;;;-144.44;100.00
7836;BME280;3963;42.658;23.298;2023-06-10T02:09:33;109798.13;;;-144.44;100.00
7836;BME280;3963;42.658;23.298;2023-06-10T02:12:02;110055.91;;;-144.44;100.00
7836;BME280;3963;42.658;23.298;2023-06-10T02:14:31;110313.69;;;-144.44;100.00
7836;BME280;3963;42.658;23.298;2023-06-10T02:16:58;110055.91;;;-144.44;100.00
7836;BME280;3963;42.658;23.298;2023-06-10T02:19:25;110055.91;;;-144.44;100.00
7836;BME280;3963;42.658;23.298;2023-06-10T02:21:53;110313.69;;;-144.44;100.00
7836;BME280;3963;42.658;23.298;2023-06-10T02:24:20;109540.38;;;-144.44;100.00
7836;BME280;3963;42.658;23.298;2023-06-10T02:26:47;109798.13;;;-144.44;100.00
7836;BME280;3963;42.658;23.298;2023-06-10T02:29:15;109540.38;;;-144.44;100.00
7836;BME280;3963;42.658;23.298;2023-06-10T02:31:42;110055.91;;;-144.44;100.00
7836;BME280;3963;42.658;23.298;2023-06-10T02:34:09;108251.91;;;-144.44;100.00
7836;BME280;3963;42.658;23.298;2023-06-10T02:36:36;107736.66;;;-144.44;100.00
7836;BME280;3963;42.658;23.298;2023-06-10T02:39:02;108251.91;;;-144.44;100.00
7836;BME280;3963;42.658;23.298;2023-06-10T02:41:29;108767.25;;;-144.44;100.00
7836;BME280;3963;42.658;23.298;2023-06-10T02:43:56;107221.47;;;-144.44;100.00
7836;BME280;3963;42.658;23.298;2023-06-10T02:46:24;108251.91;;;-144.44;100.00
7836;BME280;3963;42.658;23.298;2023-06-10T02:48:51;108767.25;;;-144.44;100.00
7836;BME280;3963;42.658;23.298;2023-06-10T02:51:18;108767.25;;;-144.44;100.00
7836;BME280;3963;42.658;23.298;2023-06-10T02:53:46;107994.28;;;-144.44;100.00
7836;BME280;3963;42.658;23.298;2023-06-10T02:56:15;108509.56;;;-144.44;100.00
7836;BME280;3963;42.658;23.298;2023-06-10T02:58:42;109540.38;;;-144.44;100.00
7836;BME280;3963;42.658;23.298;2023-06-10T03:01:09;110829.34;;;-144.44;100.00
7836;BME280;3963;42.658;23.298;2023-06-10T03:03:38;110831.34;;;-144.44;100.00
7836;BME280;3963;42.658;23.298;2023-06-10T03:06:08;110831.34;;;-144.44;100.00
7836;BME280;3963;42.658;23.298;2023-06-10T03:08:35;110831.34;;;-144.44;100.00
7836;BME280;3963;42.658;23.298;2023-06-10T03:11:03;110831.34;;;-144.44;100.00
7836;BME280;3963;42.658;23.298;2023-06-10T03:13:30;110831.34;;;-144.44;100.00
7836;BME280;3963;42.658;23.298;2023-06-10T03:15:57;110831.34;;;-144.44;100.00
7836;BME280;3963;42.658;23.298;2023-06-10T03:18:26;110831.34;;;-144.44;100.00
7836;BME280;3963;42.658;23.298;2023-06-10T03:20:54;110831.34;;;-144.44;100.00
7836;BME280;3963;42.658;23.298;2023-06-10T03:23:21;110831.34;;;-144.44;100.00
7836;BME280;3963;42.658;23.298;2023-06-10T03:25:48;110831.34;;;-144.44;100.00
7836;BME280;3963;42.658;23.298;2023-06-10T03:28:15;110831.34;;;-144.44;100.00
7836;BME280;3963;42.658;23.298;2023-06-10T03:30:42;110831.34;;;-144.44;100.00
7836;BME280;3963;42.658;23.298;2023-06-10T03:33:10;110831.34;;;-144.44;100.00
7836;BME280;3963;42.658;23.298;2023-06-10T03:35:37;110831.34;;;-144.44;100.00
7836;BME280;3963;42.658;23.298;2023-06-10T03:38:05;110831.34;;;-144.44;100.00
7836;BME280;3963;42.658;23.298;2023-06-10T03:40:32;110831.34;;;-144.44;100.00
7836;BME280;3963;42.658;23.298;2023-06-10T03:43:00;110831.34;;;-144.44;100.00
7836;BME280;3963;42.658;23.298;2023-06-10T03:45:27;110831.34;;;-144.44;100.00
7836;BME280;3963;42.658;23.298;2023-06-10T03:47:54;110831.34;;;-144.44;100.00
7836;BME280;3963;42.658;23.298;2023-06-10T03:50:21;110831.34;;;-144.44;100.00
7836;BME280;3963;42.658;23.298;2023-06-10T03:52:50;110831.34;;;-144.44;100.00
7836;BME280;3963;42.658;23.298;2023-06-10T03:55:18;110831.34;;;-144.44;100.00
7836;BME280;3963;42.658;23.298;2023-06-10T03:57:47;110831.34;;;-144.44;100.00
7836;BME280;3963;42.658;23.298;2023-06-10T04:00:14;110831.34;;;-144.44;100.00
7836;BME280;3963;42.658;23.298;2023-06-10T04:02:43;110831.34;;;-144.44;100.00
7836;BME280;3963;42.658;23.298;2023-06-10T04:05:13;110831.34;;;-144.44;100.00
7836;BME280;3963;42.658;23.298;2023-06-10T04:07:40;110831.34;;;-144.44;100.00
7836;BME280;3963;42.658;23.298;2023-06-10T04:10:08;110831.34;;;-144.44;100.00
7836;BME280;3963;42.658;23.298;2023-06-10T04:12:37;110831.34;;;-144.44;100.00
7836;BME280;3963;42.658;23.298;2023-06-10T04:15:06;110831.34;;;-144.44;100.00
7836;BME280;3963;42.658;23.298;2023-06-10T04:17:33;110831.34;;;-144.44;100.00
7836;BME280;3963;42.658;23.298;2023-06-10T04:20:00;110831.34;;;-144.44;100.00
7836;BME280;3963;42.658;23.298;2023-06-10T04:22:28;110831.34;;;-144.44;100.00
7836;BME280;3963;42.658;23.298;2023-06-10T04:24:56;110831.34;;;-144.44;100.00
7836;BME280;3963;42.658;23.298;2023-06-10T04:27:23;110831.34;;;-144.44;100.00
7836;BME280;3963;42.658;23.298;2023-06-10T04:29:51;110831.34;;;-144.44;100.00
7836;BME280;3963;42.658;23.298;2023-06-10T04:32:18;110831.34;;;-144.44;100.00
7836;BME280;3963;42.658;23.298;2023-06-10T04:34:45;110831.34;;;-144.44;100.00
7836;BME280;3963;42.658;23.298;2023-06-10T04:37:12;110831.34;;;-144.44;100.00
7836;BME280;3963;42.658;23.298;2023-06-10T04:39:40;110831.34;;;-144.44;100.00
7836;BME280;3963;42.658;23.298;2023-06-10T04:42:07;110831.34;;;-144.44;100.00
7836;BME280;3963;42.658;23.298;2023-06-10T04:44:34;110831.34;;;-144.44;100.00
7836;BME280;3963;42.658;23.298;2023-06-10T04:47:04;110831.34;;;-144.44;100.00
7836;BME280;3963;42.658;23.298;2023-06-10T04:49:34;110831.34;;;-144.44;100.00
7836;BME280;3963;42.658;23.298;2023-06-10T04:52:01;110831.34;;;-144.44;100.00
7836;BME280;3963;42.658;23.298;2023-06-10T04:54:29;110831.34;;;-144.44;100.00
7836;BME280;3963;42.658;23.298;2023-06-10T04:56:58;110831.34;;;-144.44;100.00
7836;BME280;3963;42.658;23.298;2023-06-10T04:59:24;110831.34;;;-144.44;100.00
7836;BME280;3963;42.658;23.298;2023-06-10T05:01:51;110831.34;;;-144.44;100.00
7836;BME280;3963;42.658;23.298;2023-06-10T05:04:19;110831.34;;;-144.44;100.00
7836;BME280;3963;42.658;23.298;2023-06-10T05:06:46;110831.34;;;-144.44;100.00
7836;BME280;3963;42.658;23.298;2023-06-10T05:09:13;110831.34;;;-144.44;100.00
7836;BME280;3963;42.658;23.298;2023-06-10T05:11:39;110829.34;;;-144.44;100.00
7836;BME280;3963;42.658;23.298;2023-06-10T05:14:06;110055.91;;;-144.44;100.00
7836;BME280;3963;42.658;23.298;2023-06-10T05:16:33;110313.69;;;-144.44;100.00
7836;BME280;3963;42.658;23.298;2023-06-10T05:19:00;109540.38;;;-144.44;100.00
7836;BME280;3963;42.658;23.298;2023-06-10T05:21:28;110829.34;;;-144.44;100.00
7836;BME280;3963;42.658;23.298;2023-06-10T05:23:55;110055.91;;;-144.44;100.00
7836;BME280;3963;42.658;23.298;2023-06-10T05:26:21;109540.38;;;-144.44;100.00
7836;BME280;3963;42.658;23.298;2023-06-10T05:28:48;109282.66;;;-144.44;100.00
7836;BME280;3963;42.658;23.298;2023-06-10T05:31:15;108251.91;;;-144.44;100.00
7836;BME280;3963;42.658;23.298;2023-06-10T05:33:42;108251.91;;;-144.44;100.00
7836;BME280;3963;42.658;23.298;2023-06-10T05:36:09;108509.56;;;-144.44;100.00
7836;BME280;3963;42.658;23.298;2023-06-10T05:38:37;108509.56;;;-144.44;100.00
7836;BME280;3963;42.658;23.298;2023-06-10T05:41:04;108509.56;;;-144.44;100.00
7836;BME280;3963;42.658;23.298;2023-06-10T05:43:31;108767.25;;;-144.44;100.00
7836;BME280;3963;42.658;23.298;2023-06-10T05:45:58;107736.66;;;-144.44;100.00
7836;BME280;3963;42.658;23.298;2023-06-10T05:48:25;106706.38;;;-144.44;100.00
7836;BME280;3963;42.658;23.298;2023-06-10T05:50:52;107994.28;;;-144.44;100.00
7836;BME280;3963;42.658;23.298;2023-06-10T05:53:19;104131.97;;;-144.44;100.00
7836;BME280;3963;42.658;23.298;2023-06-10T05:55:47;103617.31;;;-144.44;100.00
7836;BME280;3963;42.658;23.298;2023-06-10T05:58:14;104646.69;;;-144.44;100.00
7836;BME280;3963;42.658;23.298;2023-06-10T06:00:41;104131.97;;;-144.44;100.00
7836;BME280;3963;42.658;23.298;2023-06-10T06:03:08;105161.50;;;-144.44;100.00
7836;BME280;3963;42.658;23.298;2023-06-10T06:05:35;105161.50;;;-144.44;100.00
7836;BME280;3963;42.658;23.298;2023-06-10T06:08:03;103617.31;;;-144.44;100.00
7836;BME280;3963;42.658;23.298;2023-06-10T06:10:30;95136.53;;;-144.44;100.00
7836;BME280;3963;42.658;23.298;2023-06-10T06:13:00;95649.94;;;-144.44;100.00
7836;BME280;3963;42.658;23.298;2023-06-10T06:15:27;94366.59;;;-144.44;100.00
7836;BME280;3963;42.658;23.298;2023-06-10T06:17:54;88725.47;;;-144.44;100.00
7836;BME280;3963;42.658;23.298;2023-06-10T06:20:21;90519.38;;;-144.44;100.00
7836;BME280;3963;42.658;23.298;2023-06-10T06:22:48;84884.53;;;-144.44;100.00
7836;BME280;3963;42.658;23.298;2023-06-10T06:25:15;88213.09;;;-144.44;100.00
7836;BME280;3963;42.658;23.298;2023-06-10T06:27:42;82837.78;;;-144.44;100.00
7836;BME280;3963;42.658;23.298;2023-06-10T06:30:11;84116.88;;;-144.44;100.00
7836;BME280;3963;42.658;23.298;2023-06-10T06:32:38;81303.53;;;-144.44;100.00
7836;BME280;3963;42.658;23.298;2023-06-10T06:35:06;76194.22;;;-144.44;100.00
7836;BME280;3963;42.658;23.298;2023-06-10T06:37:35;76194.22;;;-144.44;100.00
7836;BME280;3963;42.658;23.298;2023-06-10T06:40:03;70582.78;;;-144.44;100.00
7836;BME280;3963;42.658;23.298;2023-06-10T06:42:30;70073.13;;;-144.44;100.00
7836;BME280;3963;42.658;23.298;2023-06-10T06:44:57;75683.72;;;-144.44;100.00
7836;BME280;3963;42.658;23.298;2023-06-10T06:47:25;76194.22;;;-144.44;100.00
7836;BME280;3963;42.658;23.298;2023-06-10T06:49:52;68799.25;;;-144.44;100.00
7836;BME280;3963;42.658;23.298;2023-06-10T06:52:19;73642.44;;;-144.44;100.00
7836;BME280;3963;42.658;23.298;2023-06-10T06:54:47;73387.38;;;-144.44;100.00
7836;BME280;3963;42.658;23.298;2023-06-10T06:57:14;70327.94;;;-144.44;100.00
7836;BME280;3963;42.658;23.298;2023-06-10T06:59:41;58817.97;;;-144.44;100.00
7836;BME280;3963;42.658;23.298;2023-06-10T07:02:08;55503.97;;;-144.44;100.00
7836;BME280;3963;42.658;23.298;2023-06-10T07:04:36;53308.34;;;-144.44;100.00
7836;BME280;3963;42.658;23.298;2023-06-10T07:07:04;52044.69;;;-144.44;100.00
7836;BME280;3963;42.658;23.298;2023-06-10T07:09:31;54590.28;;;-144.44;100.00
7836;BME280;3963;42.658;23.298;2023-06-10T07:11:58;50231.28;;;-144.44;100.00
7836;BME280;3963;42.658;23.298;2023-06-10T07:14:25;48952.97;;;-144.44;100.00
7836;BME280;3963;42.658;23.298;2023-06-10T07:16:52;48203.22;;;-144.44;100.00
7836;BME280;3963;42.658;23.298;2023-06-10T07:19:19;47542.63;;;-144.44;100.00
7836;BME280;3963;42.658;23.298;2023-06-10T07:21:47;47639.53;;;-144.44;100.00
7836;BME280;3963;42.658;23.298;2023-06-10T07:24:13;47054.22;;;-144.44;100.00
7836;BME280;3963;42.658;23.298;2023-06-10T07:26:40;47145.16;;;-144.44;100.00
7836;BME280;3963;42.658;23.298;2023-06-10T07:29:07;47550.56;;;-144.44;100.00
7836;BME280;3963;42.658;23.298;2023-06-10T07:31:34;47075.97;;;-144.44;100.00
7836;BME280;3963;42.658;23.298;2023-06-10T07:34:01;46492.69;;;-144.44;100.00
7836;BME280;3963;42.658;23.298;2023-06-10T07:36:27;46496.66;;;-144.44;100.00
7836;BME280;3963;42.658;23.298;2023-06-10T07:38:56;45939.19;;;-144.44;96.93
7836;BME280;3963;42.658;23.298;2023-06-10T07:41:24;45992.56;;;-144.44;97.22
7836;BME280;3963;42.658;23.298;2023-06-10T07:43:51;45895.69;;;-144.44;94.05
7836;BME280;3963;42.658;23.298;2023-06-10T07:46:20;45931.28;;;-144.44;97.18
7836;BME280;3963;42.658;23.298;2023-06-10T07:48:47;45951.03;;;-144.44;99.30
7836;BME280;3963;42.658;23.298;2023-06-10T07:51:15;45933.25;;;-144.44;97.54
7836;BME280;3963;42.658;23.298;2023-06-10T07:53:42;45806.75;;;-144.44;95.66
7836;BME280;3963;42.658;23.298;2023-06-10T07:56:10;45816.63;;;-144.44;96.74
7836;BME280;3963;42.658;23.298;2023-06-10T07:58:37;45850.22;;;-144.44;93.83
7836;BME280;3963;42.658;23.298;2023-06-10T08:01:04;45783.03;;;-144.44;87.19
7836;BME280;3963;42.658;23.298;2023-06-10T08:03:32;45741.53;;;-144.44;86.12
7836;BME280;3963;42.658;23.298;2023-06-10T08:05:58;45798.84;;;-144.44;88.02
7836;BME280;3963;42.658;23.298;2023-06-10T08:08:25;45783.03;;;-144.44;80.15
7836;BME280;3963;42.658;23.298;2023-06-10T08:10:52;45794.88;;;-144.44;75.05
7836;BME280;3963;42.658;23.298;2023-06-10T08:13:20;45753.38;;;-144.44;73.67
7836;BME280;3963;42.658;23.298;2023-06-10T08:15:47;45822.56;;;-144.44;68.60
7836;BME280;3963;42.658;23.298;2023-06-10T08:18:16;45824.53;;;-144.44;55.84
7836;BME280;3963;42.658;23.298;2023-06-10T08:20:43;45856.16;;;-144.44;52.46
7836;BME280;3963;42.658;23.298;2023-06-10T08:23:09;45881.84;;;-144.44;52.37
7836;BME280;3963;42.658;23.298;2023-06-10T08:25:36;45864.06;;;-144.44;52.53
7836;BME280;3963;42.658;23.298;2023-06-10T08:28:03;45812.69;;;-144.44;51.64
7836;BME280;3963;42.658;23.298;2023-06-10T08:30:31;45840.34;;;-144.44;51.83
7836;BME280;3963;42.658;23.298;2023-06-10T08:33:00;45808.72;;;-144.44;51.06
7836;BME280;3963;42.658;23.298;2023-06-10T08:35:26;45856.16;;;-144.44;48.00
7836;BME280;3963;42.658;23.298;2023-06-10T08:37:53;45868.03;;;-144.44;45.70
7836;BME280;3963;42.658;23.298;2023-06-10T08:40:20;45885.81;;;-144.44;45.80
7836;BME280;3963;42.658;23.298;2023-06-10T08:42:49;45854.19;;;-144.44;46.75
7836;BME280;3963;42.658;23.298;2023-06-10T08:45:19;45921.38;;;-144.44;45.74
7836;BME280;3963;42.658;23.298;2023-06-10T08:47:50;45968.84;;;-144.44;46.67
7836;BME280;3963;42.658;23.298;2023-06-10T08:50:19;45939.19;;;-144.44;42.05
7836;BME280;3963;42.658;23.298;2023-06-10T08:52:48;45964.88;;;-144.44;42.25
7836;BME280;3963;42.658;23.298;2023-06-10T08:55:18;45974.75;;;-144.44;45.64
7836;BME280;3963;42.658;23.298;2023-06-10T08:57:51;45945.13;;;-144.44;43.41
7836;BME280;3963;42.658;23.298;2023-06-10T09:00:19;45984.66;;;-144.44;41.83
7836;BME280;3963;42.658;23.298;2023-06-10T09:02:46;45943.13;;;-144.44;43.81
7836;BME280;3963;42.658;23.298;2023-06-10T09:05:15;45889.75;;;-144.44;41.93
7836;BME280;3963;42.658;23.298;2023-06-10T09:07:42;45988.59;;;-144.44;44.14
7836;BME280;3963;42.658;23.298;2023-06-10T09:10:11;45968.84;;;-144.44;41.30
7836;BME280;3963;42.658;23.298;2023-06-10T09:12:38;45974.75;;;-144.44;40.92
7836;BME280;3963;42.658;23.298;2023-06-10T09:15:06;46036.03;;;-144.44;42.88
7836;BME280;3963;42.658;23.298;2023-06-10T09:17:33;46016.28;;;-144.44;39.56
7836;BME280;3963;42.658;23.298;2023-06-10T09:20:01;46030.09;;;-144.44;38.55
7836;BME280;3963;42.658;23.298;2023-06-10T09:22:29;46069.66;;;-144.44;39.90
7836;BME280;3963;42.658;23.298;2023-06-10T09:25:02;45931.28;;;-144.44;41.69
7836;BME280;3963;42.658;23.298;2023-06-10T09:27:30;45986.63;;;-144.44;39.13
7836;BME280;3963;42.658;23.298;2023-06-10T09:29:57;46034.06;;;-144.44;38.45
7836;BME280;3963;42.658;23.298;2023-06-10T09:32:24;45958.94;;;-144.44;40.95
7836;BME280;3963;42.658;23.298;2023-06-10T09:34:51;45988.59;;;-144.44;40.19
7836;BME280;3963;42.658;23.298;2023-06-10T09:37:22;46059.75;;;-144.44;39.79
7836;BME280;3963;42.658;23.298;2023-06-10T09:40:07;46034.06;;;-144.44;37.64
7836;BME280;3963;42.658;23.298;2023-06-10T09:42:38;46136.84;;;-144.44;37.61
7836;BME280;3963;42.658;23.298;2023-06-10T09:45:08;46170.47;;;-144.44;36.60
7836;BME280;3963;42.658;23.298;2023-06-10T09:47:34;46144.75;;;-144.44;36.06
7836;BME280;3963;42.658;23.298;2023-06-10T09:50:01;46180.34;;;-144.44;36.94
7836;BME280;3963;42.658;23.298;2023-06-10T09:52:29;46063.72;;;-144.44;38.15
7836;BME280;3963;42.658;23.298;2023-06-10T09:54:59;46053.84;;;-144.44;38.50
7836;BME280;3963;42.658;23.298;2023-06-10T09:57:31;45895.69;;;-144.44;39.27
7836;BME280;3963;42.658;23.298;2023-06-10T09:59:59;46053.84;;;-144.44;40.71
7836;BME280;3963;42.658;23.298;2023-06-10T10:02:26;46045.94;;;-144.44;39.62
7836;BME280;3963;42.658;23.298;2023-06-10T10:04:53;46045.94;;;-144.44;38.01
7836;BME280;3963;42.658;23.298;2023-06-10T10:07:19;46004.41;;;-144.44;37.43
7836;BME280;3963;42.658;23.298;2023-06-10T10:09:46;46000.47;;;-144.44;37.30
7836;BME280;3963;42.658;23.298;2023-06-10T10:12:15;46038.00;;;-144.44;37.43
7836;BME280;3963;42.658;23.298;2023-06-10T10:14:47;45956.97;;;-144.44;37.90
7836;BME280;3963;42.658;23.298;2023-06-10T10:17:15;45866.03;;;-144.44;42.60
7836;BME280;3963;42.658;23.298;2023-06-10T10:19:46;45955.00;;;-144.44;37.66
7836;BME280;3963;42.658;23.298;2023-06-10T10:22:19;45966.84;;;-144.44;37.46
7836;BME280;3963;42.658;23.298;2023-06-10T10:24:49;46002.44;;;-144.44;36.16
7836;BME280;3963;42.658;23.298;2023-06-10T10:27:18;45945.13;;;-144.44;36.11
7836;BME280;3963;42.658;23.298;2023-06-10T10:29:52;45968.84;;;-144.44;40.06
7836;BME280;3963;42.658;23.298;2023-06-10T10:32:23;45966.84;;;-144.44;37.92
7836;BME280;3963;42.658;23.298;2023-06-10T10:35:03;46002.44;;;-144.44;37.93
7836;BME280;3963;42.658;23.298;2023-06-10T10:37:35;46045.94;;;-144.44;39.39
7836;BME280;3963;42.658;23.298;2023-06-10T10:40:02;46022.19;;;-144.44;38.94
7836;BME280;3963;42.658;23.298;2023-06-10T10:42:30;46073.59;;;-144.44;36.38
7836;BME280;3963;42.658;23.298;2023-06-10T10:44:59;46024.19;;;-144.44;36.23
7836;BME280;3963;42.658;23.298;2023-06-10T10:47:27;45968.84;;;-144.44;37.25
7836;BME280;3963;42.658;23.298;2023-06-10T10:49:55;45909.53;;;-144.44;38.90
7836;BME280;3963;42.658;23.298;2023-06-10T10:52:24;45982.66;;;-144.44;40.26
7836;BME280;3963;42.658;23.298;2023-06-10T10:54:53;46010.34;;;-144.44;35.96
7836;BME280;3963;42.658;23.298;2023-06-10T10:57:21;46014.28;;;-144.44;36.55
7836;BME280;3963;42.658;23.298;2023-06-10T10:59:54;45990.56;;;-144.44;38.92
7836;BME280;3963;42.658;23.298;2023-06-10T11:02:37;45899.66;;;-144.44;37.69
7836;BME280;3963;42.658;23.298;2023-06-10T11:05:09;45816.63;;;-144.44;39.29
7836;BME280;3963;42.658;23.298;2023-06-10T11:07:36;45757.34;;;-144.44;39.78
7836;BME280;3963;42.658;23.298;2023-06-10T11:10:06;45743.50;;;-144.44;39.38
7836;BME280;3963;42.658;23.298;2023-06-10T11:12:50;45788.97;;;-144.44;41.96
7836;BME280;3963;42.658;23.298;2023-06-10T11:15:19;45790.94;;;-144.44;39.89
7836;BME280;3963;42.658;23.298;2023-06-10T11:18:13;45751.41;;;-144.44;39.48
7836;BME280;3963;42.658;23.298;2023-06-10T11:21:01;45765.25;;;-144.44;39.62
7836;BME280;3963;42.658;23.298;2023-06-10T11:23:40;45765.25;;;-144.44;39.86
7836;BME280;3963;42.658;23.298;2023-06-10T11:26:16;45749.44;;;-144.44;41.67
7836;BME280;3963;42.658;23.298;2023-06-10T11:29:01;45703.97;;;-144.44;41.82
7836;BME280;3963;42.658;23.298;2023-06-10T11:31:30;45682.22;;;-144.44;44.44
7836;BME280;3963;42.658;23.298;2023-06-10T11:34:00;45652.56;;;-144.44;42.51
7836;BME280;3963;42.658;23.298;2023-06-10T11:36:29;45664.44;;;-144.44;43.76
7836;BME280;3963;42.658;23.298;2023-06-10T11:38:56;45638.75;;;-144.44;43.71
7836;BME280;3963;42.658;23.298;2023-06-10T11:41:23;45638.75;;;-144.44;44.17
7836;BME280;3963;42.658;23.298;2023-06-10T11:43:51;45666.41;;;-144.44;46.74
7836;BME280;3963;42.658;23.298;2023-06-10T11:46:18;45670.38;;;-144.44;44.10
7836;BME280;3963;42.658;23.298;2023-06-10T11:48:48;45654.56;;;-144.44;42.63
7836;BME280;3963;42.658;23.298;2023-06-10T11:51:19;45652.56;;;-144.44;43.21
7836;BME280;3963;42.658;23.298;2023-06-10T11:53:47;45666.41;;;-144.44;43.22
7836;BME280;3963;42.658;23.298;2023-06-10T11:56:19;45678.28;;;-144.44;43.27
7836;BME280;3963;42.658;23.298;2023-06-10T11:58:52;45630.84;;;-144.44;42.74
7836;BME280;3963;42.658;23.298;2023-06-10T12:01:21;45666.41;;;-144.44;42.78
7836;BME280;3963;42.658;23.298;2023-06-10T12:03:57;45676.28;;;-144.44;42.52
7836;BME280;3963;42.658;23.298;2023-06-10T12:06:26;45662.47;;;-144.44;41.79
7836;BME280;3963;42.658;23.298;2023-06-10T12:08:53;45658.50;;;-144.44;42.57
7836;BME280;3963;42.658;23.298;2023-06-10T12:11:20;45658.50;;;-144.44;42.60
7836;BME280;3963;42.658;23.298;2023-06-10T12:13:49;45674.31;;;-144.44;42.08
7836;BME280;3963;42.658;23.298;2023-06-10T12:16:16;45644.66;;;-144.44;42.22
7836;BME280;3963;42.658;23.298;2023-06-10T12:18:46;45686.19;;;-144.44;42.26
7836;BME280;3963;42.658;23.298;2023-06-10T12:21:23;45702.00;;;-144.44;41.43
7836;BME280;3963;42.658;23.298;2023-06-10T12:24:03;45642.69;;;-144.44;41.57
7836;BME280;3963;42.658;23.298;2023-06-10T12:26:38;45654.56;;;-144.44;42.39
7836;BME280;3963;42.658;23.298;2023-06-10T12:29:21;45626.88;;;-144.44;41.04
7836;BME280;3963;42.658;23.298;2023-06-10T12:32:00;45652.56;;;-144.44;40.61
7836;BME280;3963;42.658;23.298;2023-06-10T12:34:38;45702.00;;;-144.44;40.40
7836;BME280;3963;42.658;23.298;2023-06-10T12:37:10;45680.25;;;-144.44;39.83
7836;BME280;3963;42.658;23.298;2023-06-10T12:39:41;45694.09;;;-144.44;39.64
7836;BME280;3963;42.658;23.298;2023-06-10T12:42:08;45680.25;;;-144.44;38.94
7836;BME280;3963;42.658;23.298;2023-06-10T12:44:39;45672.34;;;-144.44;37.67